createdAt,value
2019-04-21T00:00:07.199Z,8.60
2019-04-21T00:02:34.475Z,7.75
2019-04-21T00:05:22.867Z,9.00
2019-04-21T00:07:52.449Z,8.70
2019-04-21T00:10:23.373Z,8.68
2019-04-21T00:12:49.226Z,8.15
2019-04-21T00:15:07.447Z,9.33
2019-04-21T00:17:27.033Z,9.60
2019-04-21T00:20:07.638Z,9.33
2019-04-21T00:22:37.753Z,9.25
2019-04-21T00:25:08.685Z,9.45
2019-04-21T00:27:41.339Z,9.03
2019-04-21T00:30:19.386Z,9.83
2019-04-21T00:32:33.426Z,9.18
2019-04-21T00:34:59.004Z,9.73
2019-04-21T00:37:42.575Z,9.80
2019-04-21T00:40:27.759Z,10.05
2019-04-21T00:42:38.646Z,9.95
2019-04-21T00:45:04.911Z,9.43
2019-04-21T00:47:57.685Z,10.08
2019-04-21T00:50:25.590Z,8.90
2019-04-21T00:52:51.231Z,9.43
2019-04-21T00:55:25.065Z,8.83
2019-04-21T00:57:45.535Z,8.73
2019-04-21T01:00:10.635Z,9.63
2019-04-21T01:02:41.610Z,9.98
2019-04-21T01:05:11.182Z,8.58
2019-04-21T01:07:37.089Z,9.28
2019-04-21T01:09:58.727Z,10.03
2019-04-21T01:12:37.662Z,10.28
2019-04-21T01:15:10.957Z,10.15
2019-04-21T01:17:22.956Z,10.28
2019-04-21T01:20:00.000Z,9.83
2019-04-21T01:22:09.763Z,10.20
2019-04-21T01:24:41.973Z,10.68
2019-04-21T01:27:18.637Z,9.90
2019-04-21T01:29:58.424Z,10.50
2019-04-21T01:32:29.562Z,9.98
2019-04-21T01:34:51.340Z,9.88
2019-04-21T01:37:28.862Z,10.85
2019-04-21T01:39:58.480Z,10.03
2019-04-21T01:42:21.073Z,10.05
2019-04-21T01:44:53.560Z,11.08
2019-04-21T01:47:17.574Z,10.90
2019-04-21T01:49:43.190Z,10.43
2019-04-21T01:52:24.043Z,10.40
2019-04-21T01:54:51.992Z,10.90
2019-04-21T01:57:17.305Z,10.82
2019-04-21T01:59:42.590Z,10.80
2019-04-21T02:02:21.550Z,10.82
2019-04-21T02:04:48.418Z,11.50
2019-04-21T02:07:14.831Z,11.15
2019-04-21T02:09:46.037Z,10.20
2019-04-21T02:12:17.270Z,10.65
2019-04-21T02:14:50.571Z,11.12
2019-04-21T02:17:14.763Z,10.30
2019-04-21T02:19:37.606Z,10.48
2019-04-21T02:22:04.906Z,10.40
2019-04-21T02:27:13.001Z,12.05
2019-04-21T02:29:43.365Z,10.38
2019-04-21T02:39:52.290Z,10.80
2019-04-21T02:44:51.741Z,10.48
2019-04-21T02:47:21.591Z,10.28
2019-04-21T02:52:30.045Z,11.05
2019-04-21T02:57:18.437Z,10.23
2019-04-21T03:00:00.445Z,11.50
2019-04-21T03:02:17.108Z,10.15
2019-04-21T03:04:44.956Z,10.25
2019-04-21T03:07:13.092Z,10.35
2019-04-21T03:09:44.477Z,10.78
2019-04-21T03:12:11.239Z,10.28
2019-04-21T03:17:05.805Z,9.38
2019-04-21T03:19:46.111Z,10.38
2019-04-21T03:22:18.197Z,10.35
2019-04-21T03:24:54.022Z,10.15
2019-04-21T03:29:37.009Z,10.30
2019-04-21T03:34:57.387Z,10.08
2019-04-21T03:39:43.237Z,11.83
2019-04-21T03:44:33.122Z,11.80
2019-04-21T03:49:41.005Z,10.78
2019-04-21T03:52:03.629Z,11.35
2019-04-21T03:54:25.267Z,10.10
2019-04-21T03:57:10.540Z,11.18
2019-04-21T03:59:19.871Z,11.63
2019-04-21T04:02:01.889Z,10.93
2019-04-21T04:04:27.884Z,10.98
2019-04-21T04:07:08.169Z,11.63
2019-04-21T04:09:30.781Z,11.60
2019-04-21T04:11:53.049Z,11.30
2019-04-21T04:14:26.754Z,10.98
2019-04-21T04:16:57.043Z,11.40
2019-04-21T04:19:30.150Z,11.63
2019-04-21T04:24:22.625Z,11.00
2019-04-21T04:26:47.534Z,10.88
2019-04-21T04:29:20.385Z,12.45
2019-04-21T04:31:42.758Z,11.15
2019-04-21T04:34:21.749Z,10.68
2019-04-21T04:36:59.222Z,10.68
2019-04-21T04:39:36.548Z,12.18
2019-04-21T04:41:53.308Z,12.65
2019-04-21T04:44:37.262Z,10.35
2019-04-21T04:49:23.989Z,11.60
2019-04-21T04:52:02.608Z,11.25
2019-04-21T04:54:11.562Z,10.63
2019-04-21T04:56:54.287Z,10.70
2019-04-21T04:59:32.820Z,11.35
2019-04-21T05:02:00.208Z,11.33
2019-04-21T05:04:20.878Z,9.65
2019-04-21T05:14:10.009Z,11.65
2019-04-21T05:19:10.689Z,10.55
2019-04-21T05:21:34.680Z,9.68
2019-04-21T05:23:51.059Z,10.00
2019-04-21T05:26:14.684Z,9.98
2019-04-21T05:28:44.955Z,10.50
2019-04-21T05:31:29.660Z,10.55
2019-04-21T05:33:57.652Z,10.55
2019-04-21T05:36:23.901Z,10.18
2019-04-21T05:38:47.783Z,10.58
2019-04-21T05:41:13.077Z,9.65
2019-04-21T05:43:51.388Z,10.48
2019-04-21T05:46:21.269Z,9.13
2019-04-21T05:48:48.292Z,9.53
2019-04-21T05:51:18.424Z,9.30
2019-04-21T05:53:49.221Z,10.30
2019-04-21T05:56:27.244Z,9.85
2019-04-21T05:58:57.953Z,8.73
2019-04-21T06:01:31.386Z,9.88
2019-04-21T06:03:52.100Z,9.23
2019-04-21T06:06:20.287Z,8.08
2019-04-21T06:08:49.992Z,8.33
2019-04-21T06:11:19.149Z,8.35
2019-04-21T06:16:13.937Z,8.15
2019-04-21T06:18:47.988Z,8.08
2019-04-21T06:21:16.389Z,7.30
2019-04-21T06:23:42.275Z,7.12
2019-04-21T06:26:42.138Z,6.95
2019-04-21T06:28:47.262Z,6.42
2019-04-21T06:38:54.038Z,5.95
2019-04-21T06:41:14.764Z,5.53
2019-04-21T06:46:12.324Z,5.62
2019-04-21T06:48:40.957Z,5.58
2019-04-21T06:51:13.686Z,5.05
2019-04-21T06:53:45.990Z,5.45
2019-04-21T06:56:08.167Z,4.92
2019-04-21T06:58:38.537Z,4.95
2019-04-21T07:01:03.875Z,5.05
2019-04-21T07:03:34.762Z,4.40
2019-04-21T07:06:08.018Z,4.25
2019-04-21T07:08:42.056Z,4.80
2019-04-21T07:11:03.988Z,4.00
2019-04-21T07:13:32.963Z,3.95
2019-04-21T07:16:04.761Z,4.42
2019-04-21T07:18:39.826Z,3.83
2019-04-21T07:21:00.193Z,4.03
2019-04-21T07:23:31.951Z,4.08
2019-04-21T07:26:00.925Z,3.62
2019-04-21T07:28:32.244Z,3.37
2019-04-21T07:31:22.795Z,3.90
2019-04-21T07:35:55.451Z,3.72
2019-04-21T07:38:24.401Z,3.30
2019-04-21T07:40:48.462Z,3.77
2019-04-21T07:43:16.386Z,3.65
2019-04-21T07:45:44.434Z,4.05
2019-04-21T07:48:19.078Z,3.80
2019-04-21T07:50:51.361Z,3.33
2019-04-21T07:53:21.197Z,3.08
2019-04-21T07:58:17.450Z,3.50
2019-04-21T08:00:51.330Z,3.20
2019-04-21T08:03:15.924Z,3.37
2019-04-21T08:05:45.803Z,2.90
2019-04-21T08:08:14.311Z,3.15
2019-04-21T08:10:39.224Z,3.15
2019-04-21T08:13:25.283Z,2.90
2019-04-21T08:15:49.432Z,3.08
2019-04-21T08:18:12.741Z,3.02
2019-04-21T08:20:42.907Z,3.25
2019-04-21T08:23:13.444Z,3.17
2019-04-21T08:25:46.316Z,2.65
2019-04-21T08:28:08.993Z,3.20
2019-04-21T08:30:54.907Z,2.70
2019-04-21T08:33:23.333Z,3.05
2019-04-21T08:36:05.520Z,3.50
2019-04-21T08:38:08.187Z,3.02
2019-04-21T08:43:09.325Z,3.47
2019-04-21T08:48:08.337Z,2.60
2019-04-21T08:50:32.817Z,3.33
2019-04-21T08:53:19.684Z,2.80
2019-04-21T08:55:32.097Z,2.75
2019-04-21T08:58:16.929Z,2.77
2019-04-21T09:00:32.424Z,2.55
2019-04-21T09:03:04.544Z,3.00
2019-04-21T09:05:31.220Z,2.70
2019-04-21T09:07:57.138Z,2.83
2019-04-21T09:10:31.148Z,1.98
2019-04-21T09:13:01.344Z,4.65
2019-04-21T09:15:25.241Z,4.87
2019-04-21T09:17:49.049Z,4.65
2019-04-21T09:20:31.064Z,4.65
2019-04-21T09:22:54.270Z,4.70
2019-04-21T09:25:30.886Z,4.70
2019-04-21T09:27:59.123Z,4.30
2019-04-21T09:30:06.957Z,4.50
2019-04-21T09:32:37.052Z,4.92
2019-04-21T09:35:10.290Z,4.97
2019-04-21T09:37:44.473Z,4.80
2019-04-21T09:40:06.785Z,4.80
2019-04-21T09:42:41.191Z,4.28
2019-04-21T09:45:07.919Z,4.72
2019-04-21T09:47:42.189Z,5.03
2019-04-21T09:50:06.626Z,4.75
2019-04-21T09:52:41.758Z,4.90
2019-04-21T09:55:13.416Z,4.45
2019-04-21T09:57:41.484Z,4.80
2019-04-21T10:00:13.168Z,4.60
2019-04-21T10:02:42.836Z,5.53
2019-04-21T10:05:05.414Z,5.28
2019-04-21T10:07:37.076Z,4.65
2019-04-21T10:10:04.214Z,5.00
2019-04-21T10:12:32.867Z,5.42
2019-04-21T10:15:04.185Z,4.90
2019-04-21T10:17:33.042Z,4.53
2019-04-21T10:20:00.787Z,4.45
2019-04-21T10:22:28.817Z,4.50
2019-04-21T10:24:56.552Z,4.22
2019-04-21T10:27:25.462Z,4.00
2019-04-21T10:29:53.988Z,4.17
2019-04-21T10:32:23.637Z,4.28
2019-04-21T10:34:50.942Z,4.60
2019-04-21T10:37:18.801Z,4.53
2019-04-21T10:39:47.536Z,4.33
2019-04-21T10:42:15.536Z,4.35
2019-04-21T10:44:43.279Z,4.33
2019-04-21T10:47:11.038Z,4.30
2019-04-21T10:49:38.771Z,4.25
2019-04-21T10:52:08.893Z,4.22
2019-04-21T10:54:49.111Z,4.90
2019-04-21T10:57:06.413Z,3.98
2019-04-21T10:59:34.988Z,4.75
2019-04-21T11:02:03.160Z,5.03
2019-04-21T11:04:35.383Z,4.35
2019-04-21T11:07:07.651Z,4.17
2019-04-21T11:09:29.864Z,4.65
2019-04-21T11:11:57.841Z,4.95
2019-04-21T11:14:25.511Z,4.60
2019-04-21T11:16:54.681Z,4.67
2019-04-21T11:19:22.413Z,4.37
2019-04-21T11:21:49.999Z,3.72
2019-04-21T11:24:18.078Z,3.98
2019-04-21T11:26:45.855Z,4.17
2019-04-21T11:29:14.863Z,4.35
2019-04-21T11:31:43.139Z,4.12
2019-04-21T11:34:11.300Z,4.08
2019-04-21T11:36:40.378Z,4.00
2019-04-21T11:39:21.057Z,4.65
2019-04-21T11:41:37.456Z,3.72
2019-04-21T11:44:05.122Z,3.40
2019-04-21T11:46:34.138Z,3.30
2019-04-21T11:49:02.475Z,3.90
2019-04-21T11:51:31.045Z,4.03
2019-04-21T11:53:59.157Z,4.47
2019-04-21T11:56:27.363Z,4.37
2019-04-21T11:58:55.203Z,3.70
2019-04-21T12:01:23.506Z,3.98
2019-04-21T12:03:51.738Z,4.08
2019-04-21T12:06:19.495Z,3.95
2019-04-21T12:08:49.913Z,4.22
2019-04-21T12:11:17.678Z,3.87
2019-04-21T12:13:45.840Z,4.25
2019-04-21T12:16:14.869Z,4.00
2019-04-21T12:18:42.991Z,4.40
2019-04-21T12:21:11.493Z,4.30
2019-04-21T12:23:40.532Z,4.08
2019-04-21T12:26:09.262Z,3.62
2019-04-21T12:28:37.636Z,3.90
2019-04-21T12:31:05.447Z,4.00
2019-04-21T12:33:34.159Z,4.25
2019-04-21T12:36:02.148Z,4.17
2019-04-21T12:38:40.382Z,4.08
2019-04-21T12:41:00.296Z,4.17
2019-04-21T12:43:28.543Z,3.80
2019-04-21T12:45:56.381Z,4.30
2019-04-21T12:48:29.771Z,3.67
2019-04-21T12:51:03.891Z,3.50
2019-04-21T12:53:31.913Z,3.80
2019-04-21T12:56:00.362Z,3.58
2019-04-21T12:58:31.036Z,4.00
2019-04-21T13:00:58.827Z,3.65
2019-04-21T13:03:28.275Z,4.37
2019-04-21T13:05:56.096Z,3.45
2019-04-21T13:08:24.936Z,3.60
2019-04-21T13:10:53.868Z,3.80
2019-04-21T13:13:22.090Z,3.58
2019-04-21T13:15:51.443Z,3.98
2019-04-21T13:18:20.483Z,3.08
2019-04-21T13:20:48.520Z,3.50
2019-04-21T13:23:16.784Z,3.92
2019-04-21T13:25:45.777Z,4.08
2019-04-21T13:28:14.518Z,3.25
2019-04-21T13:30:42.358Z,4.00
2019-04-21T13:33:11.196Z,3.65
2019-04-21T13:35:39.115Z,3.80
2019-04-21T13:38:18.865Z,3.40
2019-04-21T13:40:54.455Z,3.80
2019-04-21T13:43:08.720Z,3.62
2019-04-21T13:45:37.326Z,3.70
2019-04-21T13:48:06.557Z,4.03
2019-04-21T13:50:35.301Z,3.35
2019-04-21T13:53:03.189Z,3.52
2019-04-21T13:55:31.863Z,3.60
2019-04-21T13:57:59.938Z,3.55
2019-04-21T14:00:27.673Z,3.83
2019-04-21T14:02:56.496Z,3.87
2019-04-21T14:05:24.515Z,3.90
2019-04-21T14:07:52.371Z,3.98
2019-04-21T14:10:20.004Z,3.62
2019-04-21T14:12:48.906Z,4.10
2019-04-21T14:15:18.084Z,3.90
2019-04-21T14:17:46.765Z,3.85
2019-04-21T14:20:15.310Z,4.00
2019-04-21T14:22:44.152Z,3.67
2019-04-21T14:25:12.130Z,3.83
2019-04-21T14:27:39.937Z,4.00
2019-04-21T14:30:08.554Z,3.92
2019-04-21T14:32:36.195Z,3.52
2019-04-21T14:35:06.857Z,3.45
2019-04-21T14:37:34.881Z,3.98
2019-04-21T14:40:07.418Z,3.60
2019-04-21T14:42:32.442Z,3.60
2019-04-21T14:45:00.836Z,3.83
2019-04-21T14:47:29.474Z,3.62
2019-04-21T14:49:57.447Z,3.10
2019-04-21T14:52:25.389Z,3.50
2019-04-21T14:54:54.319Z,2.92
2019-04-21T14:57:23.082Z,3.27
2019-04-21T14:59:51.177Z,3.45
2019-04-21T15:02:20.153Z,3.70
2019-04-21T15:04:49.246Z,3.40
2019-04-21T15:07:17.169Z,3.85
2019-04-21T15:09:46.095Z,3.27
2019-04-21T15:12:14.074Z,3.40
2019-04-21T15:14:42.259Z,3.50
2019-04-21T15:17:10.005Z,3.58
2019-04-21T15:19:38.373Z,3.65
2019-04-21T15:22:06.281Z,3.10
2019-04-21T15:24:34.264Z,3.50
2019-04-21T15:27:02.946Z,3.47
2019-04-21T15:29:30.897Z,3.35
2019-04-21T15:31:58.802Z,3.65
2019-04-21T15:34:27.350Z,2.98
2019-04-21T15:36:55.599Z,3.00
2019-04-21T15:39:23.590Z,2.83
2019-04-21T15:41:52.429Z,3.33
2019-04-21T15:44:20.841Z,3.25
2019-04-21T15:46:49.988Z,3.35
2019-04-21T15:49:17.719Z,3.65
2019-04-21T15:51:46.373Z,3.42
2019-04-21T15:54:14.494Z,3.22
2019-04-21T15:56:42.676Z,3.30
2019-04-21T15:59:10.566Z,2.98
2019-04-21T16:01:38.879Z,3.00
2019-04-21T16:04:08.002Z,3.02
2019-04-21T16:06:37.228Z,3.22
2019-04-21T16:09:08.386Z,3.05
2019-04-21T16:11:36.052Z,2.83
2019-04-21T16:14:03.822Z,2.90
2019-04-21T16:16:32.712Z,3.17
2019-04-21T16:19:00.781Z,3.22
2019-04-21T16:21:31.633Z,3.47
2019-04-21T16:24:00.519Z,3.12
2019-04-21T16:26:28.812Z,3.27
2019-04-21T16:28:57.438Z,3.00
2019-04-21T16:31:25.625Z,3.10
2019-04-21T16:33:54.745Z,3.20
2019-04-21T16:36:23.321Z,2.92
2019-04-21T16:38:51.478Z,2.70
2019-04-21T16:41:20.329Z,3.45
2019-04-21T16:43:49.250Z,3.80
2019-04-21T16:46:17.898Z,3.05
2019-04-21T16:48:45.987Z,3.10
2019-04-21T16:51:15.098Z,3.35
2019-04-21T16:53:43.934Z,4.00
2019-04-21T16:56:12.975Z,3.87
2019-04-21T16:58:40.992Z,3.42
2019-04-21T17:01:14.046Z,3.37
2019-04-21T17:03:37.941Z,3.42
2019-04-21T17:06:06.880Z,3.70
2019-04-21T17:08:34.646Z,2.98
2019-04-21T17:11:10.931Z,3.98
2019-04-21T17:13:32.154Z,3.25
2019-04-21T17:16:34.099Z,3.45
2019-04-21T17:18:43.482Z,3.02
2019-04-21T17:21:01.192Z,2.72
2019-04-21T17:23:29.334Z,2.75
2019-04-21T17:25:57.218Z,3.08
2019-04-21T17:28:25.752Z,2.75
2019-04-21T17:30:54.564Z,2.83
2019-04-21T17:33:26.886Z,3.42
2019-04-21T17:35:51.549Z,2.85
2019-04-21T17:38:19.132Z,2.85
2019-04-21T17:40:47.538Z,2.85
2019-04-21T17:43:17.990Z,2.83
2019-04-21T17:45:46.768Z,2.55
2019-04-21T17:48:16.453Z,3.15
2019-04-21T17:50:45.459Z,3.22
2019-04-21T17:53:16.209Z,6.22
2019-04-21T17:55:46.663Z,4.85
2019-04-21T17:58:26.950Z,6.15
2019-04-21T18:03:40.725Z,7.00
2019-04-21T18:05:56.257Z,6.80
2019-04-21T18:08:30.178Z,5.87
2019-04-21T18:10:49.367Z,3.83
2019-04-21T18:13:13.751Z,2.87
2019-04-21T18:15:54.431Z,2.92
2019-04-21T18:18:08.439Z,3.10
2019-04-21T18:20:37.634Z,3.30
2019-04-21T18:23:09.096Z,2.47
2019-04-21T18:25:45.290Z,2.77
2019-04-21T18:28:04.969Z,3.15
2019-04-21T18:30:52.402Z,2.42
2019-04-21T18:33:26.868Z,2.62
2019-04-21T18:35:52.922Z,3.02
2019-04-21T18:38:26.108Z,3.08
2019-04-21T18:40:51.312Z,3.08
2019-04-21T18:43:48.932Z,3.47
2019-04-21T18:46:13.491Z,3.52
2019-04-21T18:48:27.422Z,3.40
2019-04-21T18:50:54.634Z,3.52
2019-04-21T18:53:32.695Z,4.22
2019-04-21T18:55:48.205Z,3.33
2019-04-21T18:58:15.285Z,3.35
2019-04-21T19:00:44.204Z,3.17
2019-04-21T19:03:14.051Z,2.62
2019-04-21T19:05:47.843Z,2.60
2019-04-21T19:08:27.885Z,3.05
2019-04-21T19:11:02.200Z,2.98
2019-04-21T19:13:40.096Z,2.60
2019-04-21T19:16:20.056Z,2.70
2019-04-21T19:18:39.832Z,2.75
2019-04-21T19:20:53.824Z,2.80
2019-04-21T19:23:33.942Z,3.08
2019-04-21T19:26:04.983Z,3.22
2019-04-21T19:28:24.769Z,2.90
2019-04-21T19:31:02.524Z,3.35
2019-04-21T19:33:18.726Z,2.65
2019-04-21T19:35:35.167Z,2.95
2019-04-21T19:38:07.061Z,2.90
2019-04-21T19:40:49.434Z,3.98
2019-04-21T19:43:17.047Z,3.12
2019-04-21T19:45:42.213Z,2.92
2019-04-21T19:48:20.426Z,3.10
2019-04-21T19:50:50.536Z,2.87
2019-04-21T19:53:08.886Z,3.60
2019-04-21T19:55:27.825Z,3.72
2019-04-21T19:57:56.672Z,3.30
2019-04-21T20:00:24.460Z,3.60
2019-04-21T20:02:52.345Z,3.47
2019-04-21T20:05:28.216Z,3.12
2019-04-21T20:08:08.289Z,3.92
2019-04-21T20:10:39.500Z,4.30
2019-04-21T20:13:07.258Z,3.77
2019-04-21T20:15:42.047Z,3.80
2019-04-21T20:18:00.246Z,4.67
2019-04-21T20:20:17.090Z,3.05
2019-04-21T20:22:48.523Z,3.20
2019-04-21T20:25:18.102Z,3.80
2019-04-21T20:27:54.301Z,3.00
2019-04-21T20:30:31.081Z,3.27
2019-04-21T20:33:05.989Z,3.15
2019-04-21T20:35:40.390Z,3.08
2019-04-21T20:37:57.810Z,3.20
2019-04-21T20:40:25.338Z,3.47
2019-04-21T20:43:07.397Z,3.80
2019-04-21T20:45:35.219Z,3.42
2019-04-21T20:47:48.986Z,3.00
2019-04-21T20:50:28.637Z,3.25
2019-04-21T20:53:01.662Z,3.20
2019-04-21T20:55:21.523Z,3.27
2019-04-21T20:57:51.738Z,3.52
2019-04-21T21:00:31.772Z,3.40
2019-04-21T21:03:02.530Z,3.50
2019-04-21T21:05:24.677Z,3.40
2019-04-21T21:07:59.145Z,3.92
2019-04-21T21:10:25.107Z,3.67
2019-04-21T21:13:10.507Z,3.10
2019-04-21T21:15:19.724Z,3.47
2019-04-21T21:18:03.384Z,3.25
2019-04-21T21:20:26.246Z,3.77
2019-04-21T21:22:52.803Z,3.10
2019-04-21T21:25:30.528Z,3.50
2019-04-21T21:27:44.567Z,3.92
2019-04-21T21:30:21.659Z,4.25
2019-04-21T21:32:54.780Z,4.25
2019-04-21T21:35:17.762Z,4.20
2019-04-21T21:37:54.889Z,4.28
2019-04-21T21:40:28.655Z,4.58
2019-04-21T21:42:40.147Z,4.12
2019-04-21T21:45:13.762Z,3.92
2019-04-21T21:47:58.016Z,4.40
2019-04-21T21:50:14.623Z,4.17
2019-04-21T21:52:48.967Z,4.37
2019-04-21T21:55:07.674Z,4.53
2019-04-21T21:57:42.999Z,4.53
2019-04-21T22:00:11.466Z,4.78
2019-04-21T22:02:44.221Z,4.35
2019-04-21T22:05:12.184Z,4.33
2019-04-21T22:07:37.151Z,4.53
2019-04-21T22:10:08.591Z,4.08
2019-04-21T22:12:45.728Z,4.45
2019-04-21T22:15:13.966Z,4.00
2019-04-21T22:17:53.032Z,3.90
2019-04-21T22:20:27.151Z,4.47
2019-04-21T22:22:48.430Z,4.87
2019-04-21T22:25:12.648Z,3.95
2019-04-21T22:27:36.931Z,4.60
2019-04-21T22:30:10.939Z,4.17
2019-04-21T22:32:38.247Z,4.55
2019-04-21T22:35:16.095Z,4.33
2019-04-21T22:37:51.501Z,4.80
2019-04-21T22:40:19.572Z,5.05
2019-04-21T22:42:49.786Z,5.15
2019-04-21T22:45:07.278Z,4.28
2019-04-21T22:47:38.178Z,4.90
2019-04-21T22:50:06.456Z,4.58
2019-04-21T22:52:35.577Z,4.55
2019-04-21T22:55:13.756Z,4.95
2019-04-21T22:57:40.824Z,5.47
2019-04-21T23:00:11.869Z,5.90
2019-04-21T23:02:38.572Z,5.70
2019-04-21T23:05:06.448Z,4.83
2019-04-21T23:07:45.489Z,4.03
2019-04-21T23:10:05.500Z,4.65
2019-04-21T23:12:38.174Z,4.60
2019-04-21T23:15:09.224Z,5.40
2019-04-21T23:17:50.733Z,5.30
2019-04-21T23:20:22.627Z,5.28
2019-04-21T23:22:57.992Z,5.08
2019-04-21T23:25:18.433Z,5.28
2019-04-21T23:27:46.872Z,4.87
2019-04-21T23:30:31.053Z,4.15
2019-04-21T23:32:39.473Z,4.53
2019-04-21T23:35:01.651Z,4.15
2019-04-21T23:37:27.831Z,4.70
2019-04-21T23:40:04.181Z,4.58
2019-04-21T23:42:32.787Z,4.30
2019-04-21T23:44:58.096Z,4.47
2019-04-21T23:47:37.328Z,5.05
2019-04-21T23:50:00.094Z,4.80
2019-04-21T23:52:23.618Z,4.95
2019-04-21T23:54:51.601Z,5.00
2019-04-21T23:57:29.795Z,5.10
2019-04-21T23:59:53.461Z,5.15
